Time;durP1;ratioP1;P1;durP2;ratioP2;P2;SDS_P1;SDS_P2;PMS_P1;PMS_P2;Temp;Humidity;BMP_temperature;BMP_pressure;BME280_temperature;BME280_humidity;BME280_pressure;Samples;Min_cycle;Max_cycle;Signal;HPM_P1;HPM_P2
2022/01/12 00:02:36;;;;;;;11.68;6.45;;;;;;;2.29;100.00;102429.59;4923417;29;20451;-73
2022/01/12 00:05:20;;;;;;;10.05;5.68;;;;;;;2.37;100.00;102432.91;4923274;29;20050;-73
2022/01/12 00:08:04;;;;;;;;;;;;;;;2.44;100.00;102418.69;4938120;29;20107;-73
2022/01/12 00:10:48;;;;;;;12.38;6.80;;;;;;;2.51;100.00;102428.16;4936606;29;20390;-74
2022/01/12 00:13:32;;;;;;;;;;;;;;;2.58;100.00;102427.94;4937418;29;20098;-74
2022/01/12 00:16:17;;;;;;;11.93;6.65;;;;;;;2.62;100.00;102431.34;4936770;29;20264;-74
2022/01/12 00:19:02;;;;;;;10.48;6.30;;;;;;;2.66;100.00;102423.34;4923305;29;20558;-73
2022/01/12 00:21:46;;;;;;;11.38;6.80;;;;;;;2.72;100.00;102414.41;4936522;29;20109;-74
2022/01/12 00:24:51;;;;;;;11.10;6.97;;;;;;;2.74;100.00;102407.31;4923180;29;20122;-73
2022/01/12 00:33:40;;;;;;;11.75;7.55;;;;;;;2.87;100.00;102420.09;4936660;29;20054;-74
2022/01/12 00:36:24;;;;;;;10.80;7.15;;;;;;;2.90;100.00;102414.72;4923187;29;20502;-73
2022/01/12 00:39:08;;;;;;;;;;;;;;;2.85;100.00;102411.34;4936478;29;20138;-74
2022/01/12 00:41:52;;;;;;;14.20;7.57;;;;;;;2.82;100.00;102411.44;4922549;29;20099;-74
2022/01/12 00:44:36;;;;;;;15.10;7.55;;;;;;;2.79;99.96;102410.66;4937213;29;20249;-74
2022/01/12 00:47:20;;;;;;;10.75;6.47;;;;;;;2.75;100.00;102396.72;4935914;29;20058;-73
2022/01/12 00:50:04;;;;;;;13.25;7.72;;;;;;;2.78;100.00;102398.41;4936068;29;20392;-73
2022/01/12 00:52:48;;;;;;;10.80;6.78;;;;;;;2.75;100.00;102411.66;4936655;29;20515;-74
2022/01/12 00:55:33;;;;;;;10.70;7.07;;;;;;;2.62;100.00;102405.03;4936793;29;20132;-74
2022/01/12 00:58:16;;;;;;;11.10;6.78;;;;;;;2.51;100.00;102410.56;4922633;29;20472;-74
2022/01/12 01:01:01;;;;;;;11.20;6.75;;;;;;;2.46;100.00;102406.34;4936960;29;20083;-74
2022/01/12 01:03:45;;;;;;;11.63;7.32;;;;;;;2.42;100.00;102399.44;4922462;29;20542;-74
2022/01/12 01:06:30;;;;;;;;;;;;;;;2.40;100.00;102403.00;4936993;29;20627;-73
2022/01/12 01:09:14;;;;;;;10.55;7.05;;;;;;;2.31;100.00;102411.16;4934803;29;19922;-73
2022/01/12 01:11:58;;;;;;;12.13;6.75;;;;;;;2.10;100.00;102404.69;4936468;29;20059;-73
2022/01/12 01:15:01;;;;;;;11.75;6.80;;;;;;;2.03;100.00;102415.41;4935685;29;20090;-74
2022/01/12 01:26:54;;;;;;;12.60;8.80;;;;;;;1.60;100.00;102436.63;4924598;29;20050;-74
2022/01/12 01:29:38;;;;;;;18.38;9.43;;;;;;;1.47;100.00;102437.78;4936404;29;20099;-74
2022/01/12 01:32:24;;;;;;;13.43;7.70;;;;;;;1.43;100.00;102438.78;4935236;29;20066;-74
2022/01/12 01:35:08;;;;;;;14.07;7.85;;;;;;;1.36;100.00;102455.56;4936312;29;20059;-74
2022/01/12 01:37:52;;;;;;;13.80;7.63;;;;;;;1.32;100.00;102456.56;4935272;29;20415;-74
2022/01/12 01:40:37;;;;;;;;;;;;;;;1.27;100.00;102463.66;4921968;29;20054;-74
2022/01/12 01:43:37;;;;;;;15.07;7.10;;;;;;;1.21;100.00;102458.56;4935983;29;19931;-73
2022/01/12 01:55:29;;;;;;;13.43;8.00;;;;;;;0.98;100.00;102445.03;4935211;29;20113;-74
2022/01/12 01:58:15;;;;;;;17.35;8.48;;;;;;;0.94;100.00;102448.59;4921556;29;20082;-73
2022/01/12 02:00:58;;;;;;;14.18;8.43;;;;;;;0.93;100.00;102436.38;4934911;29;20086;-73
2022/01/12 02:03:43;;;;;;;13.95;8.75;;;;;;;0.88;100.00;102433.00;4935859;29;20151;-73
2022/01/12 02:06:28;;;;;;;14.10;8.63;;;;;;;0.76;100.00;102433.22;4935055;29;20062;-73
2022/01/12 02:09:11;;;;;;;12.40;7.90;;;;;;;0.78;100.00;102436.72;4921243;29;20078;-73
2022/01/12 02:11:55;;;;;;;12.75;7.28;;;;;;;0.73;100.00;102435.91;4921243;29;20050;-73
2022/01/12 02:14:39;;;;;;;;;;;;;;;0.58;100.00;102446.72;4936184;29;20058;-73
2022/01/12 02:17:34;;;;;;;13.43;8.02;;;;;;;0.52;100.00;102449.47;4921451;29;19921;-74
2022/01/12 02:35:49;;;;;;;16.55;9.70;;;;;;;0.32;100.00;102467.31;4935411;29;20055;-73
2022/01/12 02:41:37;;;;;;;14.63;8.35;;;;;;;0.27;100.00;102453.44;4935212;29;20070;-73
2022/01/12 02:53:39;;;;;;;13.60;8.23;;;;;;;0.13;100.00;102465.91;4935276;29;20091;-73
2022/01/12 02:56:28;;;;;;;16.17;8.52;;;;;;;0.08;100.00;102478.25;4935343;29;20102;-73
2022/01/12 02:59:13;;;;;;;16.50;8.88;;;;;;;0.08;100.00;102482.59;4920665;29;20447;-73
2022/01/12 03:07:47;;;;;;;17.33;8.40;;;;;;;-0.11;100.00;102475.06;4935531;29;20103;-73
2022/01/12 03:10:31;;;;;;;13.80;7.10;;;;;;;-0.20;100.00;102476.09;4920716;29;20051;-73
2022/01/12 03:13:15;;;;;;;15.68;8.30;;;;;;;-0.24;100.00;102468.31;4935008;29;20115;-73
2022/01/12 03:15:59;;;;;;;;;;;;;;;-0.18;100.00;102462.94;4921393;29;20451;-73
2022/01/12 03:18:44;;;;;;;11.98;7.25;;;;;;;-0.19;100.00;102462.09;4920715;29;20295;-74
2022/01/12 03:21:33;;;;;;;10.95;6.38;;;;;;;-0.20;100.00;102459.50;4933978;29;20571;-73
2022/01/12 03:24:16;;;;;;;11.20;6.63;;;;;;;-0.27;100.00;102452.59;4935103;29;20050;-73
2022/01/12 03:27:01;;;;;;;12.25;7.30;;;;;;;-0.29;100.00;102454.38;4934137;29;20504;-73
2022/01/12 03:29:49;;;;;;;12.82;6.65;;;;;;;-0.25;100.00;102459.56;4935375;29;20109;-73
2022/01/12 03:32:36;;;;;;;11.10;6.80;;;;;;;-0.29;100.00;102455.28;4935803;29;20051;-73
2022/01/12 03:35:36;;;;;;;14.40;6.90;;;;;;;-0.33;100.00;102447.47;4938224;29;20144;-73
2022/01/12 03:38:20;;;;;;;14.18;7.05;;;;;;;-0.32;100.00;102451.81;4937573;29;20503;-73
2022/01/12 03:41:04;;;;;;;12.45;7.50;;;;;;;-0.33;100.00;102457.97;4923707;29;20098;-73
2022/01/12 03:43:48;;;;;;;13.95;7.22;;;;;;;-0.33;100.00;102463.19;4923707;29;20046;-73
2022/01/12 03:46:46;;;;;;;13.05;7.10;;;;;;;-0.48;100.00;102458.16;4937309;29;20067;-73
2022/01/12 03:49:30;;;;;;;12.32;6.85;;;;;;;-0.56;100.00;102460.03;4938244;29;20062;-73
2022/01/12 03:52:13;;;;;;;;;;;;;;;-0.50;100.00;102457.31;4938256;29;20101;-73
2022/01/12 03:54:57;;;;;;;12.23;6.85;;;;;;;-0.58;100.00;102459.19;4938732;29;19930;-73
2022/01/12 03:57:41;;;;;;;;;;;;;;;-0.60;100.00;102456.63;4937537;29;20081;-73
2022/01/12 04:00:25;;;;;;;13.30;6.85;;;;;;;-0.64;100.00;102461.91;4938105;29;20065;-73
2022/01/12 04:03:09;;;;;;;;;;;;;;;-0.69;100.00;102464.59;4923696;29;20049;-73
2022/01/12 04:08:56;;;;;;;;;;;;;;;-0.71;100.00;102491.69;4937509;29;19922;-73
2022/01/12 04:11:41;;;;;;;;;;;;;;;-0.74;100.00;102491.72;4937096;29;19922;-74
2022/01/12 04:14:25;;;;;;;;;;;;;;;-0.85;100.00;102485.78;4937108;29;20009;-73
2022/01/12 04:17:09;;;;;;;;;;;;;;;-0.91;100.00;102483.22;4936937;29;19992;-73
2022/01/12 04:19:53;;;;;;;;;;;;;;;-0.97;100.00;102472.81;4938376;29;19966;-73
2022/01/12 04:25:40;;;;;;;;;;;;;;;-1.09;100.00;102478.19;4938032;29;20014;-73
2022/01/12 04:28:25;;;;;;;;;;;;;;;-1.08;100.00;102477.31;4936659;29;20390;-73
2022/01/12 04:31:09;;;;;;;;;;;;;;;-0.95;100.00;102487.63;4936620;29;20335;-73
2022/01/12 04:33:53;;;;;;;;;;;;;;;-0.89;100.00;102494.53;4936821;29;19917;-73
2022/01/12 04:36:37;;;;;;;;;;;;;;;-0.90;100.00;102509.41;4937954;29;19985;-73
2022/01/12 04:39:21;;;;;;;;;;;;;;;-0.95;100.00;102518.19;4937782;29;19961;-73
2022/01/12 04:42:05;;;;;;;;;;;;;;;-1.02;100.00;102519.13;4937290;29;19922;-73
2022/01/12 04:44:58;;;;;;;;;;;;;;;-1.08;100.00;102524.41;4937402;29;19922;-73
2022/01/12 04:50:38;;;;;;;;;;;;;;;-1.12;100.00;102534.09;4936893;29;19921;-73
2022/01/12 04:53:22;;;;;;;;;;;;;;;-1.13;100.00;102534.94;4937026;29;20433;-73
2022/01/12 04:56:06;;;;;;;;;;;;;;;-1.13;100.00;102536.72;4922985;29;19961;-74
2022/01/12 04:58:50;;;;;;;;;;;;;;;-1.16;100.00;102537.59;4923027;29;20049;-73
2022/01/12 05:01:38;;;;;;;;;;;;;;;-1.17;100.00;102540.25;4936980;29;19953;-73
2022/01/12 05:13:10;;;;;;;;;;;;;;;-1.00;100.00;102536.56;4936200;29;19921;-73
2022/01/12 05:15:55;;;;;;;;;;;;;;;-0.95;100.00;102533.91;4936772;29;19921;-73
2022/01/12 05:18:40;;;;;;;;;;;;;;;-0.86;100.00;102539.03;4922821;29;19922;-73
2022/01/12 05:21:25;;;;;;;;;;;;;;;-0.99;100.00;102540.03;4922104;29;20260;-73
2022/01/12 05:24:10;;;;;;;;;;;;;;;-1.03;100.00;102540.97;4935861;29;20319;-73
2022/01/12 05:26:53;;;;;;;;;;;;;;;-1.07;100.00;102549.75;4935811;29;19925;-73
2022/01/12 05:29:37;;;;;;;;;;;;;;;-1.10;100.00;102560.22;4936563;29;19969;-73
2022/01/12 05:32:24;;;;;;;;;;;;;;;-1.06;100.00;102561.94;4935635;29;19920;-73
2022/01/12 05:35:09;;;;;;;;;;;;;;;-1.08;100.00;102559.34;4922209;29;19926;-73
2022/01/12 05:37:53;;;;;;;;;;;;;;;-1.06;100.00;102564.56;4922244;29;19942;-73
2022/01/12 05:40:37;;;;;;;;;;;;;;;-1.08;100.00;102569.81;4922192;29;19969;-73
2022/01/12 05:43:25;;;;;;;;;;;;;;;-1.09;100.00;102555.00;4935239;29;19922;-73
2022/01/12 05:46:12;;;;;;;;;;;;;;;-1.09;100.00;102551.50;4922060;29;19966;-73
2022/01/12 05:51:59;;;;;;;;;;;;;;;-1.04;100.00;102547.09;4935286;29;19922;-73
2022/01/12 05:54:42;;;;;;;;;;;;;;;-1.05;100.00;102537.50;4935859;29;19921;-73
2022/01/12 05:57:28;;;;;;;;;;;;;;;-0.97;100.00;102546.13;4921859;29;19957;-73
2022/01/12 06:00:12;;;;;;;;;;;;;;;-0.97;100.00;102546.13;4936236;29;20053;-73
2022/01/12 06:02:56;;;;;;;;;;;;;;;-0.99;100.00;102540.91;4921624;29;20020;-73
2022/01/12 06:05:40;;;;;;;;;;;;;;;-1.13;100.00;102544.56;4936109;29;19925;-73
2022/01/12 06:08:23;;;;;;;;;;;;;;;-1.06;100.00;102546.25;4935162;29;19966;-73
2022/01/12 06:11:08;;;;;;;;;;;;;;;-1.08;100.00;102550.59;4936123;29;19985;-73
2022/01/12 06:13:52;;;;;;;;;;;;;;;-1.04;100.00;102549.69;4921976;29;19921;-73
2022/01/12 06:16:36;;;;;;;;;;;;;;;-1.04;100.00;102545.31;4921382;29;20065;-73
2022/01/12 06:19:20;;;;;;;;;;;;;;;-1.07;100.00;102549.75;4921597;29;19921;-74
2022/01/12 06:22:04;;;;;;;;;;;;;;;-1.06;100.00;102541.00;4921365;29;19937;-73
2022/01/12 06:24:48;;;;;;;;;;;;;;;-1.07;100.00;102544.50;4921738;29;19922;-73
2022/01/12 06:27:33;;;;;;;;;;;;;;;-1.08;100.00;102547.97;4935887;29;19925;-73
2022/01/12 06:33:11;;;;;;;;;;;;;;;-1.00;100.00;102546.16;4934887;29;19931;-73
2022/01/12 06:35:55;;;;;;;;;;;;;;;-1.03;100.00;102546.19;4936003;29;19937;-73
2022/01/12 06:38:39;;;;;;;;;;;;;;;-1.05;100.00;102550.59;4936116;29;20255;-73
2022/01/12 06:41:23;;;;;;;;;;;;;;;-1.15;100.00;102544.56;4921140;29;20283;-74
2022/01/12 06:44:07;;;;;;;;;;;;;;;-1.19;100.00;102542.88;4921289;29;19965;-73
2022/01/12 06:46:53;;;;;;;;;;;;;;;-1.24;100.00;102534.19;4935028;29;20410;-73
2022/01/12 06:49:36;;;;;;;;;;;;;;;-1.24;100.00;102538.56;4934519;29;19966;-74
2022/01/12 06:52:20;;;;;;;;;;;;;;;-1.23;100.00;102549.00;4934351;29;19966;-74
2022/01/12 06:55:05;;;;;;;;;;;;;;;-1.21;100.00;102546.38;4921506;29;19926;-73
2022/01/12 06:57:49;;;;;;;;;;;;;;;-1.21;100.00;102554.25;4935872;29;20470;-73
2022/01/12 07:00:33;;;;;;;;;;;;;;;-1.18;100.00;102562.94;4921138;29;19974;-73
2022/01/12 07:03:16;;;;;;;;;;;;;;;-1.17;100.00;102579.53;4934576;29;19922;-73
2022/01/12 07:06:00;;;;;;;;;;;;;;;-1.09;100.00;102577.66;4935398;29;19925;-73
2022/01/12 07:08:44;;;;;;;;;;;;;;;-1.03;100.00;102598.56;4924801;29;20461;-74
2022/01/12 07:11:28;;;;;;;;;;;;;;;-1.01;100.00;102607.25;4925045;29;19926;-74
2022/01/12 07:14:12;;;;;;;;;;;;;;;-1.05;100.00;102616.03;4938308;29;20283;-73
2022/01/12 07:16:56;;;;;;;;;;;;;;;-1.02;100.00;102621.22;4924502;29;19921;-74
2022/01/12 07:19:40;;;;;;;;;;;;;;;-1.07;100.00;102623.91;4938122;29;19966;-74
2022/01/12 07:22:24;;;;;;;;;;;;;;;-1.07;100.00;102631.75;4924505;29;20410;-73
2022/01/12 07:25:08;;;;;;;;;;;;;;;-1.06;100.00;102630.00;4938943;29;19925;-74
2022/01/12 07:27:52;;;;;;;;;;;;;;;-1.01;100.00;102629.09;4937827;29;20001;-73
2022/01/12 07:30:36;;;;;;;;;;;;;;;-0.97;100.00;102646.47;4924510;29;19926;-73
2022/01/12 07:33:20;;;;;;;;;;;;;;;-1.02;100.00;102650.03;4937867;29;19930;-73
2022/01/12 07:36:05;;;;;;;;;;;;;;;-1.01;100.00;102651.75;4924431;29;19923;-73
2022/01/12 07:38:53;;;;;;;;;;;;;;;-0.92;100.00;102646.44;4937551;29;19930;-73
2022/01/12 07:41:38;;;;;;;;;;;;;;;-0.89;100.00;102655.13;4937637;29;19921;-73
2022/01/12 07:44:22;;;;;;;;;;;;;;;-0.83;100.00;102646.34;4938807;29;20160;-73
2022/01/12 07:47:05;;;;;;;;;;;;;;;-0.77;100.00;102634.06;4938792;29;20466;-73
2022/01/12 07:49:49;;;;;;;;;;;;;;;-0.65;100.00;102633.06;4937522;29;20076;-73
2022/01/12 07:52:33;;;;;;;;;;;;;;;-0.58;100.00;102634.72;4924097;29;19936;-73
2022/01/12 07:55:17;;;;;;;;;;;;;;;-0.51;100.00;102641.63;4937538;29;19965;-73
2022/01/12 07:58:01;;;;;;;;;;;;;;;-0.38;100.00;102654.56;4937610;29;19921;-73
2022/01/12 08:00:45;;;;;;;;;;;;;;;-0.29;100.00;102643.97;4938797;29;19920;-73
2022/01/12 08:03:29;;;;;;;;;;;;;;;-0.27;100.00;102630.84;4937116;29;20100;-73
2022/01/12 08:06:13;;;;;;;;;;;;;;;-0.19;100.00;102640.34;4924468;29;19925;-74
2022/01/12 08:08:57;;;;;;;;;;;;;;;-0.08;100.00;102651.56;4938072;29;19924;-74
2022/01/12 08:11:41;;;;;;;;;;;;;;;0.03;100.00;102653.13;4923655;29;20335;-74
2022/01/12 08:14:25;;;;;;;;;;;;;;;0.15;100.00;102663.50;4937204;29;19962;-74
2022/01/12 08:17:09;;;;;;;;;;;;;;;0.27;100.00;102679.06;4937457;29;19926;-74
2022/01/12 08:19:55;;;;;;;;;;;;;;;0.38;100.00;102681.50;4937983;29;20330;-74
2022/01/12 08:22:39;;;;;;;;;;;;;;;0.38;100.00;102682.38;4923219;29;19973;-74
2022/01/12 08:25:23;;;;;;;;;;;;;;;0.49;100.00;102682.22;4923732;29;19981;-74
2022/01/12 08:28:07;;;;;;;;;;;;;;;0.64;100.00;102688.09;4936794;29;19977;-74
2022/01/12 08:30:51;;;;;;;;;;;;;;;0.67;100.00;102682.81;4936710;29;20394;-74
2022/01/12 08:33:35;;;;;;;;;;;;;;;0.76;100.00;102685.28;4937689;29;19922;-74
2022/01/12 08:36:18;;;;;;;;;;;;;;;0.76;100.00;102680.03;4938288;29;19938;-74
2022/01/12 08:39:03;;;;;;;;;;;;;;;0.95;100.00;102684.09;4936594;29;19938;-74
2022/01/12 08:41:47;;;;;;;;;;;;;;;1.47;100.00;102687.50;4937360;29;19921;-74
2022/01/12 08:44:31;;;;;;;;;;;;;;;2.38;100.00;102689.97;4922994;29;19921;-74
2022/01/12 08:47:15;;;;;;;;;;;;;;;2.38;100.00;102689.97;4936585;29;20021;-74
2022/01/12 08:49:59;;;;;;;;;;;;;;;2.38;100.00;102689.97;4936457;29;20018;-74
2022/01/12 08:52:44;;;;;;;;;;;;;;;5.77;91.92;102684.16;4937284;29;20021;-74
2022/01/12 08:55:28;;;;;;;;;;;;;;;7.16;83.27;102679.53;4936529;29;19933;-74
2022/01/12 08:58:12;;;;;;;;;;;;;;;8.42;71.72;102682.63;4923299;29;19926;-75
2022/01/12 09:01:00;;;;;;;;;;;;;;;8.93;62.84;102690.75;4937174;29;19921;-75
2022/01/12 09:03:44;;;;;;;;;;;;;;;9.86;61.41;102700.06;4936340;29;19921;-75
2022/01/12 09:06:28;;;;;;;;;;;;;;;10.17;57.24;102702.84;4922837;29;20017;-72
2022/01/12 09:09:11;;;;;;;;;;;;;;;11.43;55.35;102698.19;4937322;29;20239;-72
2022/01/12 09:11:55;;;;;;;;;;;;;;;12.16;51.49;102701.66;4937470;29;19925;-72
2022/01/12 09:14:39;;;;;;;;;;;;;;;12.71;49.50;102715.06;4935740;29;19922;-72
2022/01/12 09:17:23;;;;;;;;;;;;;;;13.44;47.96;102710.09;4935909;29;19965;-73
2022/01/12 09:20:07;;;;;;;;;;;;;;;13.55;47.25;102711.13;4922922;29;20382;-73
2022/01/12 09:22:53;;;;;;;;;;;;;;;13.84;44.54;102722.50;4922466;29;19923;-72
2022/01/12 09:25:39;;;;;;;;;;;;;;;13.90;43.65;102728.31;4922305;29;20013;-73
2022/01/12 09:28:23;;;;;;;;;;;;;;;14.48;41.11;102719.72;4935846;29;19946;-72
2022/01/12 09:31:07;;;;;;;;;;;;;;;15.38;40.17;102724.56;4922000;29;20326;-73
2022/01/12 09:33:51;;;;;;;;;;;;;;;15.78;40.01;102724.06;4935762;29;19983;-72
2022/01/12 09:36:34;;;;;;;;;;;;;;;16.48;37.30;102732.88;4922378;29;19921;-73
2022/01/12 09:39:18;;;;;;;;;;;;;;;16.70;36.78;102736.41;4936794;29;19922;-72
2022/01/12 09:42:03;;;;;;;;;;;;;;;16.25;36.59;102721.22;4936517;29;20351;-72
2022/01/12 09:44:48;;;;;;;;;;;;;;;16.04;37.44;102736.38;4935316;29;19950;-72
2022/01/12 09:47:31;;;;;;;;;;;;;;;17.03;37.40;102732.78;4935553;29;20061;-73
2022/01/12 09:50:16;;;;;;;;;;;;;;;18.07;34.15;102744.47;4935293;29;19921;-73
2022/01/12 09:53:00;;;;;;;;;;;;;;;18.14;34.52;102745.63;4921552;29;19921;-73
2022/01/12 09:55:44;;;;;;;;;;;;;;;17.91;33.35;102760.25;4935388;29;19925;-72
2022/01/12 09:58:35;;;;;;;;;;;;;;;17.94;34.23;102757.31;4936877;29;19921;-72
2022/01/12 10:01:06;;;;;;;;;;;;;;;18.22;32.59;102759.31;5011171;28;19921;-71
2022/01/12 10:03:50;;;;;;;;;;;;;;;16.91;34.25;102756.19;4985074;28;20016;-70
2022/01/12 10:06:35;;;;;;;;;;;;;;;17.11;36.18;102758.13;5013494;28;20004;-71
2022/01/12 10:09:23;;;;;;;;;;;;;;;17.32;33.50;102753.63;4998556;28;20017;-71
2022/01/12 10:12:11;;;;;;;;;;;;;;;18.06;32.74;102758.09;5013446;28;19920;-70
2022/01/12 10:14:55;;;;;;;;;;;;;;;18.55;33.33;102762.66;4984802;28;20285;-70
2022/01/12 10:17:44;;;;;;;;;;;;;;;18.11;32.10;102764.81;4998587;28;20453;-70
2022/01/12 10:20:28;;;;;;;;;;;;;;;18.10;33.06;102765.78;5013481;28;20016;-70
2022/01/12 10:23:14;;;;;;;;;;;;;;;18.05;32.71;102769.88;4984573;28;20300;-70
2022/01/12 10:25:58;;;;;;;;;;;;;;;18.73;32.51;102755.63;5013436;28;19954;-70
2022/01/12 10:28:42;;;;;;;;;;;;;;;19.36;33.55;102751.66;5013141;28;20331;-70
2022/01/12 10:31:26;;;;;;;;;;;;;;;18.83;32.88;102755.63;5013130;28;19921;-70
2022/01/12 10:34:10;;;;;;;;;;;;;;;19.89;32.84;102750.22;4998173;28;19971;-70
2022/01/12 10:36:54;;;;;;;;;;;;;;;20.98;28.99;102744.88;5013645;28;20059;-70
2022/01/12 10:39:39;;;;;;;;;;;;;;;20.12;29.42;102744.34;5013033;28;19951;-70
2022/01/12 10:42:24;;;;;;;;;;;;;;;20.20;29.09;102752.59;5016870;28;19979;-70
2022/01/12 10:45:08;;;;;;;;;;;;;;;19.06;28.67;102741.75;5017419;28;20371;-70
2022/01/12 10:47:59;;;;;;;;;;;;;;;19.53;28.39;102745.53;5002356;28;20024;-70
2022/01/12 10:50:52;;;;;;;;;;;;;;;18.70;29.68;102737.00;5002290;28;19920;-70
2022/01/12 10:53:36;;;;;;;;;;;;;;;17.78;31.52;102746.13;5017100;28;19924;-69
2022/01/12 10:56:21;;;;;;;;;;;;;;;18.95;29.55;102732.91;5002043;28;19920;-70
2022/01/12 10:59:05;;;;;;;;;;;;;;;18.10;30.09;102722.59;5016904;28;19920;-70
2022/01/12 11:01:49;;;;;;;;;;;;;;;17.53;30.80;102730.31;5017085;28;20415;-70
2022/01/12 11:04:33;;;;;;;;;;;;;;;18.50;30.27;102727.09;5016651;28;20024;-70
2022/01/12 11:07:17;;;;;;;;;;;;;;;18.33;29.78;102731.44;5002004;28;19920;-69
2022/01/12 11:10:02;;;;;;;;;;;;;;;17.11;31.41;102720.38;5001718;28;19920;-69
2022/01/12 11:12:46;;;;;;;;;;;;;;;18.37;30.87;102706.72;5016771;28;19919;-70
2022/01/12 11:15:30;;;;;;;;;;;;;;;18.28;31.03;102721.00;5001931;28;19924;-70
2022/01/12 11:18:15;;;;;;;;;;;;;;;18.40;30.32;102706.44;5016448;28;19964;-70
2022/01/12 11:21:01;;;;;;;;;;;;;;;18.91;29.24;102709.84;5016633;28;19959;-70
2022/01/12 11:23:45;;;;;;;;;;;;;;;19.14;29.04;102706.78;5001462;28;19920;-70
2022/01/12 11:26:29;;;;;;;;;;;;;;;16.00;33.00;102705.31;4987913;28;20428;-69
2022/01/12 11:29:13;;;;;;;;;;;;;;;17.34;31.54;102703.16;5016279;28;19919;-69
2022/01/12 11:32:04;;;;;;;;;;;;;;;18.04;28.92;102696.16;5016888;28;20301;-70
2022/01/12 11:35:01;;;;;;;;;;;;;;;17.07;31.28;102686.59;5001525;28;19999;-70
2022/01/12 11:37:48;;;;;;;;;;;;;;;18.06;29.74;102694.16;5016112;28;20040;-70
2022/01/12 11:40:36;;;;;;;;;;;;;;;16.60;31.78;102694.19;5001329;28;20044;-71
2022/01/12 11:43:27;;;;;;;;;;;;;;;16.65;31.54;102692.81;5016318;28;19920;-70
2022/01/12 11:46:13;;;;;;;;;;;;;;;15.67;33.49;102689.09;4987842;28;19933;-70
2022/01/12 11:48:58;;;;;;;;;;;;;;;16.55;32.34;102681.09;5016123;28;19920;-71
2022/01/12 11:51:43;;;;;;;;;;;;;;;16.75;32.98;102674.94;5016248;28;19972;-68
2022/01/12 11:54:35;;;;;;;;;;;;;;;16.39;33.36;102672.53;5000917;28;20343;-70
2022/01/12 11:57:19;;;;;;;;;;;;;;;16.46;32.63;102668.38;5001316;28;19924;-69
2022/01/12 12:00:13;;;;;;;;;;;;;;;16.47;32.23;102675.47;4987084;28;19920;-70
2022/01/12 12:02:57;;;;;;;;;;;;;;;16.73;32.86;102678.72;5001056;28;20258;-70
2022/01/12 12:05:41;;;;;;;;;;;;;;;17.40;33.23;102682.94;5001177;28;19920;-69
2022/01/12 12:08:25;;;;;;;;;;;;;;;17.60;31.68;102691.03;5000531;28;19920;-70
2022/01/12 12:11:09;;;;;;;;;;;;;;;16.89;32.21;102685.41;5000541;28;19959;-71
2022/01/12 12:13:58;;;;;;;;;;;;;;;16.12;33.37;102688.19;5015464;28;19924;-70
2022/01/12 12:16:42;;;;;;;;;;;;;;;16.11;34.66;102686.47;4986966;28;19923;-70
2022/01/12 12:19:26;;;;;;;;;;;;;;;16.89;32.23;102692.66;5000504;28;20313;-70
2022/01/12 12:22:11;;;;;;;;;;;;;;;16.48;31.77;102693.34;5015584;28;19920;-70
2022/01/12 12:24:58;;;;;;;;;;;;;;;16.42;31.75;102683.06;5000625;28;19920;-70
2022/01/12 12:27:43;;;;;;;;;;;;;;;15.78;32.96;102686.41;5000876;28;19924;-70
2022/01/12 12:30:27;;;;;;;;;;;;;;;15.50;33.34;102679.78;5015165;28;20017;-70
2022/01/12 12:33:12;;;;;;;;;;;;;;;14.81;34.68;102682.34;5015141;28;20033;-70
2022/01/12 12:35:56;;;;;;;;;;;;;;;15.55;36.05;102678.44;5015118;28;20067;-70
2022/01/12 12:38:40;;;;;;;;;;;;;;;15.54;34.87;102674.03;5015595;28;20067;-70
2022/01/12 12:41:24;;;;;;;;;;;;;;;15.35;35.37;102671.03;5014965;28;20346;-70
2022/01/12 12:44:21;;;;;;;;;;;;;;;15.14;36.79;102671.78;5000343;28;20013;-70
2022/01/12 12:47:11;;;;;;;;;;;;;;;14.93;35.58;102673.38;5015163;28;19988;-70
2022/01/12 12:49:56;;;;;;;;;;;;;;;14.66;36.68;102680.78;5000441;28;19928;-70
2022/01/12 12:52:41;;;;;;;;;;;;;;;14.80;35.58;102677.97;5000184;28;20384;-70
2022/01/12 12:55:25;;;;;;;;;;;;;;;14.13;36.34;102697.19;5000024;28;19962;-70
2022/01/12 12:58:09;;;;;;;;;;;;;;;13.53;39.58;102691.59;4999825;28;19959;-70
2022/01/12 13:01:03;;;;;;;;;;;;;;;12.67;40.38;102702.81;4999615;28;19976;-70
2022/01/12 13:03:51;;;;;;;;;;;;;;;13.20;41.73;102714.44;4999564;28;19983;-70
2022/01/12 13:06:35;;;;;;;;;;;;;;;13.57;40.16;102711.84;5000136;28;19919;-69
2022/01/12 13:09:19;;;;;;;;;;;;;;;13.51;39.03;102695.34;4999502;28;20019;-69
2022/01/12 13:12:03;;;;;;;;;;;;;;;13.34;38.90;102690.28;5014993;28;20022;-70
2022/01/12 13:14:47;;;;;;;;;;;;;;;12.90;40.90;102701.25;5014329;28;20016;-70
2022/01/12 13:17:31;;;;;;;;;;;;;;;12.09;41.26;102700.31;5014352;28;19920;-70
2022/01/12 13:23:03;;;;;;;;;;;;;;;11.59;42.13;102704.38;5014719;28;19987;-70
2022/01/12 13:25:47;;;;;;;;;;;;;;;11.61;42.75;102708.69;5014241;28;19943;-70
2022/01/12 13:28:32;;;;;;;;;;;;;;;11.16;42.69;102700.66;4999448;28;19920;-70
2022/01/12 13:31:17;;;;;;;;;;;;;;;10.92;42.80;102696.75;4999175;28;19920;-69
2022/01/12 13:34:02;;;;;;;;;;;;;;;10.64;44.24;102690.44;5014273;28;20466;-69
2022/01/12 13:36:50;;;;;;;;;;;;;;;10.16;45.09;102700.25;4999079;28;19939;-69
2022/01/12 13:39:34;;;;;;;;;;;;;;;9.90;46.27;102706.94;4998979;28;19968;-70
2022/01/12 13:42:17;;;;;;;;;;;;;;;9.69;46.05;102705.41;5014160;28;20314;-71
2022/01/12 13:45:07;;;;;;;;;;;;;;;9.87;46.91;102708.94;4999200;28;19924;-71
2022/01/12 13:47:57;;;;;;;;;;;;;;;9.77;47.18;102718.34;4999265;28;19920;-70
2022/01/12 13:50:44;;;;;;;;;;;;;;;9.63;45.73;102707.53;5013709;28;19976;-70
2022/01/12 13:53:31;;;;;;;;;;;;;;;9.08;47.15;102697.97;5014074;28;19925;-70
2022/01/12 13:56:15;;;;;;;;;;;;;;;9.36;48.09;102708.97;5013829;28;19940;-71
2022/01/12 13:58:59;;;;;;;;;;;;;;;9.74;46.74;102700.72;5013425;28;19919;-71
2022/01/12 14:01:43;;;;;;;;;;;;;;;9.48;46.67;102695.03;4998919;28;19956;-70
2022/01/12 14:04:41;;;;;;;;;;;;;;;9.61;47.11;102701.44;5013585;28;19921;-70
2022/01/12 14:07:36;;;;;;;;;;;;;;;9.29;47.27;102702.22;4998912;28;19940;-70
2022/01/12 14:10:48;;;;;;;;;;;;;;;8.69;49.09;102702.59;5013539;28;20003;-70
2022/01/12 14:13:41;;;;;;;;;;;;;;;8.54;49.61;102706.00;5013298;28;20473;-70
2022/01/12 14:16:27;;;;;;;;;;;;;;;8.36;50.85;102717.47;5012936;28;19920;-71
2022/01/12 14:19:11;;;;;;;;;;;;;;;8.27;51.61;102708.13;4998582;28;19957;-69
2022/01/12 14:21:56;;;;;;;;;;;;;;;7.90;51.86;102712.50;4998987;28;19920;-70
2022/01/12 14:24:40;;;;;;;;;;;;;;;7.85;52.87;102719.81;4998376;28;19982;-70
2022/01/12 14:27:24;;;;;;;;;;;;;;;8.31;53.31;102716.81;4984888;28;19920;-70
2022/01/12 14:30:09;;;;;;;;;;;;;;;8.44;53.28;102718.00;5013451;28;19921;-70
2022/01/12 14:32:53;;;;;;;;;;;;;;;8.47;53.56;102716.03;4998329;28;19920;-70
2022/01/12 14:35:37;;;;;;;;;;;;;;;8.43;51.47;102713.59;5013426;28;19921;-70
2022/01/12 14:38:20;;;;;;;;;;;;;;;8.47;53.51;102709.88;4998453;28;19963;-70
2022/01/12 14:41:04;;;;;;;;;;;;;;;8.35;52.57;102713.94;4998551;28;19963;-70
2022/01/12 14:43:49;;;;;;;;;;;;;;;8.25;53.18;102714.47;5013134;28;19920;-70
2022/01/12 14:46:33;;;;;;;;;;;;;;;8.11;54.37;102703.53;4998570;28;20059;-71
2022/01/12 14:49:17;;;;;;;;;;;;;;;7.96;52.97;102714.88;4998651;28;20269;-70
2022/01/12 14:52:01;;;;;;;;;;;;;;;7.72;53.54;102716.81;5013631;28;19921;-71
2022/01/12 14:54:45;;;;;;;;;;;;;;;7.59;54.35;102706.81;5013179;28;19924;-70
2022/01/12 14:57:29;;;;;;;;;;;;;;;7.26;55.28;102712.69;5012981;28;19920;-70
2022/01/12 15:00:18;;;;;;;;;;;;;;;6.78;58.13;102720.88;4997945;28;20389;-70
2022/01/12 15:03:04;;;;;;;;;;;;;;;6.46;57.97;102717.78;5013294;28;19928;-70
2022/01/12 15:05:48;;;;;;;;;;;;;;;6.28;59.12;102713.19;5013161;28;20380;-69
2022/01/12 15:08:33;;;;;;;;;;;;;;;6.14;61.02;102723.44;5013004;28;19952;-69
2022/01/12 15:11:17;;;;;;;;;;;;;;;5.95;61.75;102725.88;5013168;28;19920;-70
2022/01/12 15:14:20;;;;;;;;;;;;;;;5.67;64.86;102716.31;4998003;28;19963;-69